Time,TemperatureF,DewpointF,PressureIn,WindDirection,WindDirectionDegrees,WindSpeedMPH,WindSpeedGustMPH,Humidity,HourlyPrecipIn,Conditions,Clouds,dailyrainin,SoftwareType,DateUTC
2013-10-22 00:23:00,46.0,43.0,29.98,WNW,284,1.0,3.0,89,0.00,,,0.00,,2013-10-22 03:23:00,
2013-10-22 00:55:00,46.0,43.0,29.98,WNW,293,1.0,3.0,90,0.00,,,0.00,,2013-10-22 03:55:00,
2013-10-22 01:14:00,46.0,44.0,29.98,WNW,293,0.0,3.0,91,0.00,,,0.00,,2013-10-22 04:14:00,
2013-10-22 01:25:00,46.0,44.0,29.99,WNW,293,0.0,0.0,92,0.00,,,0.00,,2013-10-22 04:25:00,
2013-10-22 01:55:00,45.0,43.0,29.99,WNW,293,0.0,0.0,93,0.00,,,0.00,,2013-10-22 04:55:00,
2013-10-22 02:22:00,44.0,42.0,29.99,WNW,293,0.0,0.0,94,0.00,,,0.00,,2013-10-22 05:22:00,
2013-10-22 02:52:00,43.0,42.0,30.00,WNW,293,0.0,0.0,96,0.01,,,0.01,,2013-10-22 05:52:00,
2013-10-22 03:12:00,42.0,41.0,30.00,WNW,293,0.0,0.0,97,0.01,,,0.01,,2013-10-22 06:12:00,
2013-10-22 03:22:00,42.0,41.0,30.00,WNW,293,0.0,0.0,98,0.01,,,0.01,,2013-10-22 06:22:00,
2013-10-22 03:54:00,41.0,41.0,30.00,WNW,293,0.0,0.0,100,0.00,,,0.01,,2013-10-22 06:54:00,
2013-10-22 04:23:00,41.0,41.0,29.99,WNW,293,0.0,0.0,100,0.00,,,0.01,,2013-10-22 07:23:00,
2013-10-22 04:52:00,41.0,41.0,29.99,WNW,293,0.0,0.0,100,0.00,,,0.01,,2013-10-22 07:52:00,
2013-10-22 05:22:00,41.0,41.0,30.00,WNW,293,0.0,1.0,100,0.00,,,0.01,,2013-10-22 08:22:00,
2013-10-22 05:42:00,41.0,41.0,30.00,WNW,293,0.0,2.0,100,0.00,,,0.01,,2013-10-22 08:42:00,
2013-10-22 05:52:00,41.0,41.0,30.00,WNW,293,0.0,2.0,100,0.00,,,0.01,,2013-10-22 08:52:00,
2013-10-22 06:22:00,40.0,40.0,30.01,WNW,293,0.0,0.0,100,0.00,,,0.01,,2013-10-22 09:22:00,
2013-10-22 06:54:00,40.0,40.0,30.01,WNW,293,0.0,0.0,100,0.00,,,0.01,,2013-10-22 09:54:00,
2013-10-22 07:23:00,39.0,39.0,30.00,WNW,293,0.0,0.0,100,0.00,,,0.01,,2013-10-22 10:23:00,
2013-10-22 07:54:00,40.0,40.0,30.00,WNW,293,0.0,2.0,100,0.00,,,0.01,,2013-10-22 10:54:00,
2013-10-22 08:22:00,39.0,39.0,30.00,WNW,293,0.0,0.0,100,0.00,,,0.01,,2013-10-22 11:22:00,
2013-10-22 08:53:00,41.0,41.0,30.01,WNW,293,0.0,0.0,100,0.00,,,0.01,,2013-10-22 11:53:00,
2013-10-22 09:22:00,43.0,43.0,30.01,WNW,284,0.0,0.0,100,0.00,,,0.01,,2013-10-22 12:22:00,
2013-10-22 09:42:00,44.0,44.0,30.01,West,278,0.0,0.0,100,0.00,,,0.01,,2013-10-22 12:42:00,
2013-10-22 09:52:00,45.0,45.0,30.01,WSW,255,0.0,0.0,100,0.00,,,0.01,,2013-10-22 12:52:00,
2013-10-22 10:22:00,47.0,47.0,30.00,SW,219,0.0,2.0,100,0.00,,,0.01,,2013-10-22 13:22:00,
2013-10-22 10:42:00,49.0,49.0,30.00,South,176,2.0,6.0,100,0.00,,,0.01,,2013-10-22 13:42:00,
2013-10-22 10:53:00,49.0,49.0,30.00,South,170,2.0,5.0,100,0.00,,,0.01,,2013-10-22 13:53:00,
2013-10-22 11:52:00,52.0,49.0,29.97,SSE,165,8.0,14.0,90,0.00,,,0.01,,2013-10-22 14:52:00,
2013-10-22 12:22:00,52.0,47.0,29.96,South,170,6.0,13.0,82,0.00,,,0.01,,2013-10-22 15:22:00,
2013-10-22 12:54:00,53.0,48.0,29.95,South,175,9.0,13.0,83,0.00,,,0.01,,2013-10-22 15:54:00,
2013-10-22 13:23:00,54.0,49.0,29.93,SSE,159,6.0,13.0,82,0.00,,,0.01,,2013-10-22 16:23:00,
2013-10-22 13:53:00,54.0,47.0,29.93,South,171,7.0,14.0,78,0.00,,,0.01,,2013-10-22 16:53:00,
2013-10-22 14:22:00,56.0,47.0,29.91,South,175,7.0,15.0,72,0.00,,,0.01,,2013-10-22 17:22:00,
2013-10-22 14:43:00,56.0,46.0,29.90,South,177,10.0,16.0,68,0.00,,,0.01,,2013-10-22 17:43:00,
2013-10-22 14:53:00,56.0,46.0,29.89,South,182,7.0,14.0,68,0.00,,,0.01,,2013-10-22 17:53:00,
2013-10-22 15:22:00,57.0,46.0,29.88,South,178,7.0,14.0,66,0.00,,,0.01,,2013-10-22 18:22:00,
2013-10-22 15:42:00,56.0,45.0,29.87,SSE,164,9.0,12.0,67,0.00,,,0.01,,2013-10-22 18:42:00,
2013-10-22 15:52:00,56.0,47.0,29.87,SSE,161,7.0,13.0,71,0.00,,,0.01,,2013-10-22 18:52:00,
2013-10-22 16:22:00,55.0,46.0,29.86,SSE,163,7.0,12.0,71,0.00,,,0.01,,2013-10-22 19:22:00,
2013-10-22 16:42:00,54.0,46.0,29.85,SSE,152,7.0,13.0,74,0.00,,,0.01,,2013-10-22 19:42:00,
2013-10-22 16:53:00,54.0,46.0,29.84,SSE,155,7.0,12.0,74,0.00,,,0.01,,2013-10-22 19:53:00,
2013-10-22 17:22:00,54.0,46.0,29.85,South,173,6.0,12.0,74,0.00,,,0.01,,2013-10-22 20:22:00,
2013-10-22 17:43:00,54.0,45.0,29.84,South,176,12.0,18.0,72,0.00,,,0.01,,2013-10-22 20:43:00,
2013-10-22 17:52:00,54.0,45.0,29.85,South,170,12.0,20.0,71,0.00,,,0.01,,2013-10-22 20:52:00,
2013-10-22 18:23:00,54.0,45.0,29.83,South,171,13.0,20.0,71,0.00,,,0.01,,2013-10-22 21:23:00,
2013-10-22 18:44:00,53.0,44.0,29.82,South,174,12.0,20.0,72,0.00,,,0.01,,2013-10-22 21:44:00,
2013-10-22 18:54:00,53.0,44.0,29.83,South,171,12.0,21.0,71,0.00,,,0.01,,2013-10-22 21:54:00,
2013-10-22 19:24:00,53.0,44.0,29.83,South,175,14.0,20.0,72,0.00,,,0.01,,2013-10-22 22:24:00,
2013-10-22 19:44:00,53.0,45.0,29.82,South,173,13.0,20.0,74,0.00,,,0.01,,2013-10-22 22:44:00,
2013-10-22 19:54:00,53.0,45.0,29.82,South,172,12.0,18.0,75,0.00,,,0.01,,2013-10-22 22:54:00,
2013-10-22 20:23:00,53.0,47.0,29.80,SSE,166,12.0,20.0,79,0.00,,,0.01,,2013-10-22 23:23:00,
2013-10-22 20:53:00,53.0,48.0,29.78,SSE,168,12.0,21.0,82,0.00,,,0.01,,2013-10-22 23:53:00,
2013-10-22 21:11:00,52.0,48.0,29.77,South,180,12.0,21.0,85,0.00,,,0.01,,2013-10-23 00:11:00,
2013-10-22 21:22:00,52.0,48.0,29.77,South,174,13.0,24.0,87,0.00,,,0.01,,2013-10-23 00:22:00,
2013-10-22 21:42:00,52.0,49.0,29.76,South,183,14.0,23.0,89,0.00,,,0.01,,2013-10-23 00:42:00,
2013-10-22 21:52:00,52.0,49.0,29.75,South,172,12.0,23.0,90,0.00,,,0.01,,2013-10-23 00:52:00,
2013-10-22 22:23:00,52.0,49.0,29.74,South,174,12.0,21.0,91,0.00,,,0.01,,2013-10-23 01:23:00,
2013-10-22 22:42:00,52.0,50.0,29.72,South,175,14.0,20.0,92,0.00,,,0.01,,2013-10-23 01:42:00,
2013-10-22 22:52:00,53.0,51.0,29.72,South,177,13.0,22.0,92,0.00,,,0.01,,2013-10-23 01:52:00,
2013-10-22 23:22:00,53.0,51.0,29.70,South,178,11.0,22.0,92,0.00,,,0.01,,2013-10-23 02:22:00,
2013-10-22 23:54:00,53.0,52.0,29.69,South,185,11.0,18.0,95,0.00,,,0.01,,2013-10-23 02:54:00,